createdAt,value
2019-05-10T00:03:22.706Z,6.30
2019-05-10T00:08:44.444Z,5.60
2019-05-10T00:13:53.601Z,5.40
2019-05-10T00:18:57.361Z,5.50
2019-05-10T00:24:01.395Z,5.60
2019-05-10T00:29:05.217Z,5.90
2019-05-10T00:34:09.001Z,6.10
2019-05-10T00:39:12.733Z,6.00
2019-05-10T00:44:16.459Z,5.80
2019-05-10T00:49:20.358Z,5.20
2019-05-10T00:54:24.383Z,5.20
2019-05-10T00:59:28.150Z,5.00
2019-05-10T01:04:32.025Z,5.10
2019-05-10T01:09:35.730Z,4.90
2019-05-10T01:14:39.414Z,4.90
2019-05-10T01:19:43.502Z,5.10
2019-05-10T01:24:47.774Z,4.80
2019-05-10T01:29:51.537Z,4.80
2019-05-10T01:34:55.263Z,4.70
2019-05-10T01:39:58.977Z,4.50
2019-05-10T01:45:02.810Z,4.50
2019-05-10T01:50:07.343Z,4.50
2019-05-10T01:55:11.110Z,4.60
2019-05-10T02:00:15.435Z,4.50
2019-05-10T02:05:19.262Z,4.50
2019-05-10T02:10:22.943Z,4.50
2019-05-10T02:15:27.083Z,4.30
2019-05-10T02:20:31.049Z,4.10
2019-05-10T02:25:34.734Z,4.00
2019-05-10T02:30:38.482Z,4.10
2019-05-10T02:35:42.308Z,4.20
2019-05-10T02:40:46.067Z,4.30
2019-05-10T02:45:49.768Z,4.00
2019-05-10T02:50:53.496Z,3.90
2019-05-10T02:55:58.496Z,3.80
2019-05-10T03:01:03.811Z,3.80
2019-05-10T03:06:07.537Z,3.90
2019-05-10T03:11:13.824Z,4.10
2019-05-10T03:16:19.823Z,4.20
2019-05-10T03:21:24.513Z,4.10
2019-05-10T03:26:28.292Z,4.30
2019-05-10T03:31:32.477Z,4.40
2019-05-10T03:36:36.467Z,4.60
2019-05-10T03:41:40.382Z,4.70
2019-05-10T03:46:44.397Z,4.80
2019-05-10T03:51:48.174Z,5.00
2019-05-10T03:57:10.733Z,5.10
2019-05-10T04:01:57.399Z,5.20
2019-05-10T04:07:01.418Z,5.40
2019-05-10T04:12:05.094Z,5.60
2019-05-10T04:17:08.926Z,6.00
2019-05-10T04:22:12.748Z,6.30
2019-05-10T04:27:31.336Z,6.40
2019-05-10T04:32:21.898Z,6.60
2019-05-10T04:37:25.694Z,6.70
2019-05-10T04:42:29.482Z,6.80
2019-05-10T04:47:33.325Z,6.90
2019-05-10T04:52:37.348Z,7.10
2019-05-10T04:57:50.013Z,7.20
2019-05-10T05:02:46.475Z,7.40
2019-05-10T05:07:50.265Z,7.60
2019-05-10T05:12:54.226Z,7.80
2019-05-10T05:17:57.934Z,8.00
2019-05-10T05:23:01.651Z,8.30
2019-05-10T05:28:07.950Z,8.50
2019-05-10T05:33:10.783Z,8.80
2019-05-10T05:38:14.495Z,9.10
2019-05-10T05:43:18.204Z,9.40
2019-05-10T05:48:23.091Z,9.70
2019-05-10T05:53:27.295Z,9.80
2019-05-10T05:58:31.006Z,9.80
2019-05-10T06:03:34.702Z,9.90
2019-05-10T06:08:38.428Z,10.00
2019-05-10T06:13:42.223Z,10.10
2019-05-10T06:18:47.223Z,10.30
2019-05-10T06:23:51.601Z,10.60
2019-05-10T06:28:59.575Z,11.00
2019-05-10T06:34:00.730Z,11.50
2019-05-10T06:39:06.779Z,12.00
2019-05-10T06:44:10.466Z,12.10
2019-05-10T06:49:14.187Z,12.00
2019-05-10T06:54:17.874Z,12.10
2019-05-10T06:59:24.976Z,12.10
2019-05-10T07:04:27.021Z,12.20
2019-05-10T07:10:00.026Z,12.40
2019-05-10T07:14:36.233Z,12.60
2019-05-10T07:19:42.112Z,12.80
2019-05-10T07:24:45.466Z,13.20
2019-05-10T07:29:49.138Z,14.20
2019-05-10T07:34:58.647Z,15.50
2019-05-10T07:39:58.278Z,15.40
2019-05-10T07:45:02.154Z,14.90
2019-05-10T07:50:09.804Z,15.00
2019-05-10T07:55:12.234Z,15.20
2019-05-10T08:00:16.279Z,15.60
2019-05-10T08:05:20.066Z,15.80
2019-05-10T08:10:23.889Z,15.90
2019-05-10T08:15:32.580Z,15.80
2019-05-10T08:20:46.143Z,15.20
2019-05-10T08:25:43.990Z,14.70
2019-05-10T08:30:51.860Z,14.40
2019-05-10T08:35:52.449Z,14.10
2019-05-10T08:40:56.108Z,13.90
2019-05-10T08:45:59.778Z,13.70
2019-05-10T08:51:06.454Z,13.70
2019-05-10T08:56:13.972Z,13.80
2019-05-10T09:01:26.277Z,14.40
2019-05-10T09:06:22.084Z,14.90
2019-05-10T09:11:25.386Z,15.30
2019-05-10T09:16:34.869Z,16.90
2019-05-10T09:21:34.507Z,17.50
2019-05-10T09:26:38.206Z,17.40
2019-05-10T09:31:46.013Z,17.70
2019-05-10T09:36:47.704Z,17.50
2019-05-10T09:41:52.740Z,16.70
2019-05-10T09:46:57.135Z,16.50
2019-05-10T09:52:04.539Z,16.80
2019-05-10T09:57:08.251Z,17.20
2019-05-10T10:02:18.244Z,17.50
2019-05-10T10:07:19.007Z,17.70
2019-05-10T10:12:22.982Z,17.60
2019-05-10T10:17:27.502Z,18.30
2019-05-10T10:22:32.117Z,18.00
2019-05-10T10:27:37.172Z,17.30
2019-05-10T10:32:44.437Z,16.20
2019-05-10T10:37:47.576Z,16.50
2019-05-10T10:42:51.657Z,16.50
2019-05-10T10:47:57.310Z,17.00
2019-05-10T10:53:00.786Z,18.60
2019-05-10T10:58:04.534Z,19.70
2019-05-10T11:03:08.220Z,18.40
2019-05-10T11:08:11.903Z,17.30
2019-05-10T11:13:23.705Z,16.60
2019-05-10T11:18:21.668Z,16.50
2019-05-10T11:23:34.218Z,16.30
2019-05-10T11:28:38.541Z,16.30
2019-05-10T11:33:58.490Z,16.80
2019-05-10T11:39:01.752Z,17.00
2019-05-10T11:44:08.955Z,18.10
2019-05-10T11:49:11.095Z,18.60
2019-05-10T11:54:14.830Z,17.70
2019-05-10T11:59:21.650Z,17.70
2019-05-10T12:04:36.399Z,17.30
2019-05-10T12:09:31.622Z,17.20
2019-05-10T12:14:35.238Z,17.10
2019-05-10T12:24:53.972Z,17.30
2019-05-10T12:26:27.894Z,17.20
2019-05-10T12:29:55.888Z,17.80
2019-05-10T12:34:56.763Z,18.20
2019-05-10T12:40:09.029Z,18.00
2019-05-10T12:45:06.217Z,18.00
2019-05-10T12:50:10.178Z,18.70
2019-05-10T12:55:14.337Z,19.10
2019-05-10T13:00:18.220Z,19.40
2019-05-10T13:05:30.865Z,19.30
2019-05-10T13:10:27.526Z,19.70
2019-05-10T13:15:33.331Z,20.40
2019-05-10T13:20:38.722Z,20.10
2019-05-10T13:25:42.562Z,19.60
2019-05-10T13:30:46.355Z,18.90
2019-05-10T13:35:50.913Z,18.60
2019-05-10T13:40:55.598Z,18.60
2019-05-10T13:45:59.371Z,18.30
2019-05-10T13:51:03.090Z,18.30
2019-05-10T13:56:06.888Z,18.10
2019-05-10T14:01:13.060Z,18.20
2019-05-10T14:06:16.474Z,18.50
2019-05-10T14:11:20.259Z,18.60
2019-05-10T14:16:24.029Z,18.90
2019-05-10T14:21:27.743Z,18.60
2019-05-10T14:26:31.444Z,18.40
2019-05-10T14:31:35.462Z,18.10
2019-05-10T14:36:41.140Z,17.70
2019-05-10T14:41:45.441Z,17.30
2019-05-10T14:46:50.173Z,17.30
2019-05-10T14:51:59.052Z,17.20
2019-05-10T14:56:59.306Z,17.10
2019-05-10T15:02:03.006Z,17.20
2019-05-10T15:07:08.666Z,17.20
2019-05-10T15:12:16.328Z,17.30
2019-05-10T15:17:20.007Z,17.50
2019-05-10T15:22:24.774Z,17.40
2019-05-10T15:27:29.033Z,17.40
2019-05-10T15:32:32.968Z,17.00
2019-05-10T15:37:40.824Z,16.80
2019-05-10T15:42:42.254Z,16.70
2019-05-10T15:47:51.057Z,16.70
2019-05-10T15:52:51.455Z,16.80
2019-05-10T15:57:57.576Z,16.80
2019-05-10T16:03:00.842Z,17.00
2019-05-10T16:08:04.967Z,17.00
2019-05-10T16:13:08.717Z,16.40
2019-05-10T16:18:13.146Z,16.30
2019-05-10T16:23:16.823Z,16.10
2019-05-10T16:28:22.915Z,15.70
2019-05-10T16:33:26.213Z,15.00
2019-05-10T16:38:29.922Z,14.40
2019-05-10T16:43:33.920Z,14.10
2019-05-10T16:48:38.093Z,13.90
2019-05-10T16:53:43.889Z,13.80
2019-05-10T16:58:52.420Z,14.40
2019-05-10T17:04:00.092Z,14.50
2019-05-10T17:08:58.391Z,14.40
2019-05-10T17:14:02.450Z,13.90
2019-05-10T17:19:06.570Z,14.00
2019-05-10T17:24:10.304Z,13.30
2019-05-10T17:29:14.757Z,13.00
2019-05-10T17:34:27.523Z,13.00
2019-05-10T17:39:25.907Z,13.30
2019-05-10T17:44:29.475Z,13.30
2019-05-10T17:49:33.522Z,12.50
2019-05-10T17:54:39.286Z,12.20
2019-05-10T17:59:47.095Z,12.10
2019-05-10T18:04:48.588Z,12.30
2019-05-10T18:09:52.378Z,12.30
2019-05-10T18:14:57.607Z,12.20
2019-05-10T18:20:02.448Z,12.00
2019-05-10T18:25:07.486Z,11.80
2019-05-10T18:30:12.350Z,11.50
2019-05-10T18:35:17.065Z,11.20
2019-05-10T18:40:25.145Z,10.90
2019-05-10T18:45:28.600Z,10.80
2019-05-10T18:50:31.715Z,10.50
2019-05-10T18:55:35.706Z,10.30
2019-05-10T19:00:46.649Z,10.10
2019-05-10T19:05:50.413Z,9.80
2019-05-10T19:10:54.187Z,9.70
2019-05-10T19:15:58.742Z,9.60
2019-05-10T19:21:03.082Z,9.70
2019-05-10T19:26:07.187Z,9.90
2019-05-10T19:31:11.008Z,10.00
2019-05-10T19:36:14.828Z,9.90
2019-05-10T19:41:20.144Z,9.80
2019-05-10T19:46:24.058Z,9.70
2019-05-10T19:51:27.970Z,9.70
2019-05-10T19:56:36.588Z,9.70
2019-05-10T20:01:37.203Z,9.50
2019-05-10T20:06:41.155Z,9.30
2019-05-10T20:11:44.947Z,9.20
2019-05-10T20:16:52.757Z,9.10
2019-05-10T20:21:54.199Z,9.00
2019-05-10T20:26:58.154Z,8.90
2019-05-10T20:32:01.862Z,8.80
2019-05-10T20:37:05.826Z,8.70
2019-05-10T20:42:09.801Z,8.70
2019-05-10T20:47:13.535Z,8.70
2019-05-10T20:52:17.402Z,8.70
2019-05-10T20:57:21.156Z,8.60
2019-05-10T21:02:25.415Z,8.50
2019-05-10T21:07:29.226Z,8.20
2019-05-10T21:12:33.253Z,8.20
2019-05-10T21:17:36.967Z,8.20
2019-05-10T21:22:40.682Z,8.00
2019-05-10T21:27:44.385Z,7.90
2019-05-10T21:32:48.130Z,8.00
2019-05-10T21:37:51.831Z,7.90
2019-05-10T21:42:55.582Z,7.90
2019-05-10T21:47:59.279Z,7.90
2019-05-10T21:53:02.962Z,8.00
2019-05-10T21:58:06.718Z,8.10
2019-05-10T22:03:10.483Z,8.00
2019-05-10T22:08:14.366Z,7.90
2019-05-10T22:13:18.377Z,7.80
2019-05-10T22:18:22.849Z,7.70
2019-05-10T22:23:26.953Z,7.50
2019-05-10T22:28:30.702Z,7.40
2019-05-10T22:33:34.395Z,7.30
2019-05-10T22:38:38.123Z,7.10
2019-05-10T22:43:41.841Z,7.00
2019-05-10T22:48:45.649Z,6.90
2019-05-10T22:53:59.459Z,6.80
2019-05-10T22:58:55.102Z,6.70
2019-05-10T23:03:58.794Z,6.50
2019-05-10T23:09:02.478Z,6.30
2019-05-10T23:14:06.255Z,6.20
2019-05-10T23:19:09.931Z,5.20
2019-05-10T23:24:17.538Z,6.20
2019-05-10T23:29:21.207Z,6.00
2019-05-10T23:34:24.906Z,5.80
2019-05-10T23:39:40.375Z,5.60
2019-05-10T23:44:34.021Z,5.50
2019-05-10T23:49:37.760Z,5.50
2019-05-10T23:54:41.456Z,5.50
2019-05-10T23:59:45.472Z,5.50
